Time;durP1;ratioP1;P1;durP2;ratioP2;P2;SDS_P1;SDS_P2;PMS_P1;PMS_P2;Temp;Humidity;BMP_temperature;BMP_pressure;BME280_temperature;BME280_humidity;BME280_pressure;Samples;Min_cycle;Max_cycle;Signal;HPM_P1;HPM_P2
2022/07/29 00:00:58;;;;;;;5.27;1.90;;;;;;;;;;10442254;28;20223;-68
2022/07/29 00:05:59;;;;;;;6.20;2.07;;;;;;;;;;10440882;28;20227;-68
2022/07/29 00:11:00;;;;;;;4.83;1.90;;;;;;;;;;10442436;28;20632;-69
2022/07/29 00:16:01;;;;;;;5.10;1.80;;;;;;;;;;10445873;28;20220;-69
2022/07/29 00:21:02;;;;;;;3.10;2.13;;;;;;;;;;10444896;28;20576;-69
2022/07/29 00:26:03;;;;;;;5.40;1.80;;;;;;;;;;10444729;28;20687;-69
2022/07/29 00:31:04;;;;;;;4.10;1.87;;;;;;;;;;10442268;28;20227;-68
2022/07/29 00:36:05;;;;;;;4.07;2.00;;;;;;;;;;10425953;28;20232;-67
2022/07/29 00:41:06;;;;;;;6.03;1.83;;;;;;;;;;10439412;28;20215;-67
2022/07/29 00:46:07;;;;;;;3.73;1.60;;;;;;;;;;10444818;28;20232;-68
2022/07/29 00:51:10;;;;;;;6.00;1.80;;;;;;;;;;10434943;28;20221;-68
2022/07/29 00:56:11;;;;;;;2.57;1.70;;;;;;;;;;10436877;28;20680;-68
2022/07/29 01:01:12;;;;;;;6.07;1.80;;;;;;;;;;10453881;28;20223;-68
2022/07/29 01:06:13;;;;;;;4.33;2.00;;;;;;;;;;10436645;28;20259;-68
2022/07/29 01:11:14;;;;;;;4.83;1.90;;;;;;;;;;10439879;28;20315;-69
2022/07/29 01:16:21;;;;;;;5.97;2.00;;;;;;;;;;10436455;28;20329;-68
2022/07/29 01:21:28;;;;;;;7.10;2.10;;;;;;;;;;10452102;28;20216;-68
2022/07/29 01:26:52;;;;;;;6.07;2.20;;;;;;;;;;10429920;28;20595;-68
2022/07/29 01:32:01;;;;;;;3.80;1.80;;;;;;;;;;10429404;28;20216;-68
2022/07/29 01:37:09;;;;;;;9.40;2.20;;;;;;;;;;10442360;28;20220;-68
2022/07/29 01:42:16;;;;;;;7.40;1.83;;;;;;;;;;10438907;28;20575;-68
2022/07/29 01:47:21;;;;;;;14.63;2.93;;;;;;;;;;10439231;28;20254;-67
2022/07/29 01:52:26;;;;;;;9.17;3.23;;;;;;;;;;10450034;28;20224;-68
2022/07/29 01:57:28;;;;;;;10.17;2.97;;;;;;;;;;10433368;28;20275;-68
2022/07/29 02:02:30;;;;;;;4.17;2.40;;;;;;;;;;10436666;28;20232;-68
2022/07/29 02:07:33;;;;;;;5.23;2.03;;;;;;;;;;10433848;28;20281;-69
2022/07/29 02:12:35;;;;;;;8.03;2.20;;;;;;;;;;10444526;28;20224;-68
2022/07/29 02:17:41;;;;;;;4.00;1.93;;;;;;;;;;10432240;28;20692;-67
2022/07/29 02:22:44;;;;;;;4.07;2.37;;;;;;;;;;10434542;28;20223;-68
2022/07/29 02:27:46;;;;;;;5.60;2.20;;;;;;;;;;10436213;28;20232;-68
2022/07/29 02:32:51;;;;;;;5.20;2.30;;;;;;;;;;10442436;28;20227;-69
2022/07/29 02:43:13;;;;;;;6.83;2.30;;;;;;;;;;10420900;28;20216;-68
2022/07/29 02:48:16;;;;;;;4.33;2.13;;;;;;;;;;10432070;28;20212;-68
2022/07/29 02:53:23;;;;;;;7.63;2.40;;;;;;;;;;10431451;28;20747;-68
2022/07/29 02:58:34;;;;;;;3.87;2.00;;;;;;;;;;10435803;28;20219;-68
2022/07/29 03:03:37;;;;;;;4.13;2.23;;;;;;;;;;10429841;28;20239;-68
2022/07/29 03:08:39;;;;;;;5.23;2.50;;;;;;;;;;10450224;28;20212;-68
2022/07/29 03:13:40;;;;;;;5.60;2.20;;;;;;;;;;10440256;28;20215;-69
2022/07/29 03:18:41;;;;;;;7.93;2.50;;;;;;;;;;10422697;28;20249;-69
2022/07/29 03:23:46;;;;;;;5.60;2.13;;;;;;;;;;10434958;28;20232;-69
2022/07/29 03:28:47;;;;;;;6.10;2.43;;;;;;;;;;10439234;28;20307;-69
2022/07/29 03:33:48;;;;;;;8.23;2.60;;;;;;;;;;10425389;28;20742;-67
2022/07/29 03:38:52;;;;;;;7.30;2.40;;;;;;;;;;10444389;28;20230;-68
2022/07/29 03:43:53;;;;;;;6.37;2.77;;;;;;;;;;10427453;28;20227;-69
2022/07/29 03:48:56;;;;;;;6.23;2.53;;;;;;;;;;10436646;28;20596;-66
2022/07/29 03:53:57;;;;;;;6.33;2.53;;;;;;;;;;10422821;28;20687;-67
2022/07/29 03:58:59;;;;;;;5.73;2.10;;;;;;;;;;10437054;28;20269;-68
2022/07/29 04:04:01;;;;;;;5.53;2.17;;;;;;;;;;10419735;28;20246;-67
2022/07/29 04:09:05;;;;;;;6.07;2.37;;;;;;;;;;10420857;28;20226;-67
2022/07/29 04:14:06;;;;;;;4.00;2.33;;;;;;;;;;10442772;28;20219;-67
2022/07/29 04:19:07;;;;;;;6.00;2.50;;;;;;;;;;10433790;28;20604;-67
2022/07/29 04:24:08;;;;;;;6.13;2.50;;;;;;;;;;10444304;28;20230;-69
2022/07/29 04:29:11;;;;;;;9.57;2.70;;;;;;;;;;10427712;28;20230;-70
2022/07/29 04:34:12;;;;;;;9.40;2.37;;;;;;;;;;10430825;28;20250;-68
2022/07/29 04:39:14;;;;;;;8.13;2.47;;;;;;;;;;10435128;28;20223;-69
2022/07/29 04:44:15;;;;;;;4.00;2.27;;;;;;;;;;10441640;28;20235;-68
2022/07/29 04:49:16;;;;;;;7.70;2.30;;;;;;;;;;10431051;28;20219;-67
2022/07/29 04:54:17;;;;;;;5.30;2.07;;;;;;;;;;10440662;28;20310;-69
2022/07/29 04:59:19;;;;;;;11.17;3.20;;;;;;;;;;10433900;28;20220;-70
2022/07/29 05:04:20;;;;;;;4.50;2.20;;;;;;;;;;10434463;28;20283;-68
2022/07/29 05:09:21;;;;;;;6.53;2.50;;;;;;;;;;10437435;28;20321;-68
2022/07/29 05:14:22;;;;;;;5.90;2.70;;;;;;;;;;10435723;28;20230;-68
2022/07/29 05:19:23;;;;;;;5.10;2.40;;;;;;;;;;10434166;28;20225;-69
2022/07/29 05:24:24;;;;;;;7.50;2.63;;;;;;;;;;10435757;28;20228;-69
2022/07/29 05:29:26;;;;;;;5.37;2.33;;;;;;;;;;10446560;28;20212;-69
2022/07/29 05:34:27;;;;;;;9.73;3.30;;;;;;;;;;10433199;28;20266;-69
2022/07/29 05:39:31;;;;;;;10.33;2.80;;;;;;;;;;10430647;28;20212;-70
2022/07/29 05:44:36;;;;;;;3.73;2.60;;;;;;;;;;10430716;28;20252;-69
2022/07/29 05:49:37;;;;;;;11.37;2.87;;;;;;;;;;10437413;28;20230;-70
2022/07/29 05:54:38;;;;;;;11.73;3.10;;;;;;;;;;10438445;28;20760;-70
2022/07/29 05:59:39;;;;;;;14.03;3.40;;;;;;;;;;10439840;28;20282;-69
2022/07/29 06:04:40;;;;;;;8.93;3.00;;;;;;;;;;10437950;28;20774;-69
2022/07/29 06:09:41;;;;;;;6.80;2.90;;;;;;;;;;10429056;28;20699;-70
2022/07/29 06:14:42;;;;;;;6.93;3.20;;;;;;;;;;10440512;28;20571;-69
2022/07/29 06:19:43;;;;;;;14.00;3.43;;;;;;;;;;10437677;28;20216;-69
2022/07/29 06:24:44;;;;;;;8.63;3.07;;;;;;;;;;10436231;28;20227;-70
2022/07/29 06:29:45;;;;;;;21.90;3.30;;;;;;;;;;10427683;28;20292;-70
2022/07/29 06:34:46;;;;;;;6.63;3.23;;;;;;;;;;10434566;28;20324;-70
2022/07/29 06:39:47;;;;;;;5.73;3.20;;;;;;;;;;10435034;28;20217;-69
2022/07/29 06:44:48;;;;;;;7.00;3.20;;;;;;;;;;10441301;28;20229;-70
2022/07/29 06:49:49;;;;;;;6.37;3.40;;;;;;;;;;10429345;28;20220;-69
2022/07/29 06:54:50;;;;;;;6.37;2.97;;;;;;;;;;10427284;28;20267;-70
2022/07/29 06:59:51;;;;;;;4.37;2.97;;;;;;;;;;10427269;28;20710;-70
2022/07/29 07:04:52;;;;;;;5.97;3.10;;;;;;;;;;10434652;28;20230;-70
2022/07/29 07:09:53;;;;;;;5.73;3.17;;;;;;;;;;10431419;28;20753;-71
2022/07/29 07:14:54;;;;;;;12.97;3.20;;;;;;;;;;10435626;28;20242;-70
2022/07/29 07:19:55;;;;;;;6.77;2.97;;;;;;;;;;10429236;28;20278;-70
2022/07/29 07:24:56;;;;;;;8.80;3.37;;;;;;;;;;10433187;28;20258;-70
2022/07/29 07:29:57;;;;;;;3.73;2.73;;;;;;;;;;10429301;28;20263;-69
2022/07/29 07:34:58;;;;;;;36.77;4.23;;;;;;;;;;10432245;28;20757;-69
2022/07/29 07:39:59;;;;;;;5.70;2.43;;;;;;;;;;10428600;28;20230;-69
2022/07/29 07:45:03;;;;;;;7.30;3.00;;;;;;;;;;10434482;28;20623;-69
2022/07/29 07:50:09;;;;;;;9.77;3.50;;;;;;;;;;10436903;28;20219;-70
2022/07/29 07:55:10;;;;;;;4.43;2.70;;;;;;;;;;10448772;28;20196;-69
2022/07/29 08:00:12;;;;;;;4.20;2.50;;;;;;;;;;10438307;28;20185;-70
2022/07/29 08:05:16;;;;;;;12.63;3.60;;;;;;;;;;10444037;28;20207;-70
2022/07/29 08:10:51;;;;;;;8.20;3.13;;;;;;;;;;10435948;28;20584;-70
2022/07/29 08:15:40;;;;;;;6.03;3.23;;;;;;;;;;10442077;28;20222;-70
2022/07/29 08:20:41;;;;;;;4.93;2.90;;;;;;;;;;10433933;28;20588;-70
2022/07/29 08:25:42;;;;;;;4.37;2.50;;;;;;;;;;10431745;28;20231;-69
2022/07/29 08:30:43;;;;;;;7.97;3.20;;;;;;;;;;10441181;28;20232;-69
2022/07/29 08:35:47;;;;;;;5.73;2.90;;;;;;;;;;10431472;28;20224;-71
2022/07/29 08:40:48;;;;;;;10.33;3.60;;;;;;;;;;10440781;28;20251;-70
2022/07/29 08:45:50;;;;;;;4.27;2.60;;;;;;;;;;10432311;28;20232;-71
2022/07/29 08:50:58;;;;;;;4.73;2.80;;;;;;;;;;10440013;28;20307;-71
2022/07/29 08:56:02;;;;;;;8.43;2.60;;;;;;;;;;10433746;28;20228;-71
2022/07/29 09:01:07;;;;;;;6.83;2.87;;;;;;;;;;10437310;28;20221;-70
2022/07/29 09:06:08;;;;;;;6.13;2.60;;;;;;;;;;10435498;28;20569;-70
2022/07/29 09:11:11;;;;;;;6.70;2.30;;;;;;;;;;10436350;28;20248;-70
2022/07/29 09:16:12;;;;;;;4.70;2.50;;;;;;;;;;10435224;28;20373;-70
2022/07/29 09:26:38;;;;;;;5.97;2.70;;;;;;;;;;10431121;28;20293;-70
2022/07/29 09:31:43;;;;;;;3.97;2.93;;;;;;;;;;10439136;28;20735;-70
2022/07/29 09:36:48;;;;;;;4.00;2.77;;;;;;;;;;10429445;28;20229;-70
2022/07/29 09:41:57;;;;;;;5.17;2.90;;;;;;;;;;10437594;28;20223;-70
2022/07/29 09:47:05;;;;;;;4.07;2.95;;;;;;;;;;10438441;28;20232;-70
2022/07/29 09:52:08;;;;;;;6.38;2.88;;;;;;;;;;10433464;28;20220;-70
2022/07/29 09:57:12;;;;;;;5.43;2.80;;;;;;;;;;10434526;28;20220;-70
2022/07/29 10:02:13;;;;;;;5.53;3.33;;;;;;;;;;10430336;28;20722;-70
2022/07/29 10:07:14;;;;;;;6.65;3.13;;;;;;;;;;10432712;28;20228;-70
2022/07/29 10:12:15;;;;;;;6.63;3.05;;;;;;;;;;10433251;28;20224;-71
2022/07/29 10:17:18;;;;;;;4.22;2.75;;;;;;;;;;10432864;28;20330;-70
2022/07/29 10:22:19;;;;;;;4.70;3.10;;;;;;;;;;10433797;28;20216;-71
2022/07/29 10:27:20;;;;;;;4.75;3.00;;;;;;;;;;10432206;28;20251;-70
2022/07/29 10:32:29;;;;;;;7.57;3.30;;;;;;;;;;10428378;28;20251;-70
2022/07/29 10:37:43;;;;;;;8.48;3.05;;;;;;;;;;10434731;28;20243;-70
2022/07/29 10:42:47;;;;;;;5.60;2.80;;;;;;;;;;10436045;28;20216;-70
2022/07/29 10:47:48;;;;;;;6.47;3.08;;;;;;;;;;10428092;28;20570;-71
2022/07/29 10:52:49;;;;;;;6.10;3.17;;;;;;;;;;10435932;28;20223;-71
2022/07/29 10:58:09;;;;;;;4.57;2.70;;;;;;;;;;10428558;28;20262;-71
2022/07/29 11:03:10;;;;;;;4.68;2.72;;;;;;;;;;10440597;28;20259;-71
2022/07/29 11:08:18;;;;;;;6.53;2.92;;;;;;;;;;10431659;28;20228;-71
2022/07/29 11:13:38;;;;;;;4.32;2.88;;;;;;;;;;10431385;28;20222;-70
2022/07/29 11:18:58;;;;;;;5.50;3.40;;;;;;;;;;10427159;28;20299;-70
2022/07/29 11:24:12;;;;;;;4.53;2.95;;;;;;;;;;10443475;28;20222;-70
2022/07/29 11:29:22;;;;;;;8.23;2.80;;;;;;;;;;10435592;28;20263;-70
2022/07/29 11:34:24;;;;;;;4.60;3.00;;;;;;;;;;10438203;28;20258;-74
2022/07/29 11:39:29;;;;;;;9.95;3.05;;;;;;;;;;10437590;28;20215;-69
2022/07/29 11:44:50;;;;;;;7.03;2.95;;;;;;;;;;10441120;28;20311;-72
2022/07/29 11:49:51;;;;;;;7.93;3.13;;;;;;;;;;10443260;28;20722;-70
2022/07/29 11:54:53;;;;;;;6.20;3.17;;;;;;;;;;10435014;28;20587;-70
2022/07/29 11:59:55;;;;;;;6.30;2.93;;;;;;;;;;10443193;28;20643;-70
2022/07/29 12:04:59;;;;;;;4.93;3.17;;;;;;;;;;10442326;28;20327;-70
2022/07/29 12:10:00;;;;;;;5.23;3.60;;;;;;;;;;10437551;28;20212;-71
2022/07/29 12:15:20;;;;;;;9.30;3.00;;;;;;;;;;10453349;28;20265;-70
2022/07/29 12:20:28;;;;;;;4.00;3.10;;;;;;;;;;10439819;28;20306;-70
2022/07/29 12:25:33;;;;;;;3.60;3.20;;;;;;;;;;10435879;28;20298;-69
2022/07/29 12:30:39;;;;;;;3.10;2.80;;;;;;;;;;10432541;28;20286;-70
2022/07/29 12:35:40;;;;;;;6.50;3.33;;;;;;;;;;10448409;28;20682;-70
2022/07/29 12:40:41;;;;;;;7.17;3.50;;;;;;;;;;10433645;28;20217;-70
2022/07/29 12:46:03;;;;;;;7.27;3.30;;;;;;;;;;10440788;28;20720;-70
2022/07/29 12:51:05;;;;;;;8.80;2.90;;;;;;;;;;10434829;28;20224;-70
2022/07/29 12:56:15;;;;;;;3.87;2.70;;;;;;;;;;10430064;28;20217;-71
2022/07/29 13:01:17;;;;;;;4.07;2.80;;;;;;;;;;10435868;28;20687;-70
2022/07/29 13:06:37;;;;;;;7.10;3.10;;;;;;;;;;10435292;28;20245;-70
2022/07/29 13:11:42;;;;;;;4.77;2.90;;;;;;;;;;10438451;28;20224;-70
2022/07/29 13:17:02;;;;;;;3.50;3.03;;;;;;;;;;10432370;28;20699;-70
2022/07/29 13:22:03;;;;;;;4.33;2.60;;;;;;;;;;10439254;28;20216;-69
2022/07/29 13:27:04;;;;;;;5.07;2.80;;;;;;;;;;10433318;28;20307;-69
2022/07/29 13:32:05;;;;;;;6.07;2.90;;;;;;;;;;10439480;28;20310;-70
2022/07/29 13:37:06;;;;;;;3.10;2.80;;;;;;;;;;10440152;28;20228;-69
2022/07/29 13:42:08;;;;;;;6.63;2.87;;;;;;;;;;10433668;28;20224;-69
2022/07/29 13:47:12;;;;;;;5.10;3.27;;;;;;;;;;10434097;28;20727;-70
2022/07/29 13:52:13;;;;;;;4.23;2.90;;;;;;;;;;10434510;28;20235;-70
2022/07/29 13:57:21;;;;;;;4.33;2.57;;;;;;;;;;10434519;28;20225;-69
2022/07/29 14:02:22;;;;;;;4.07;3.17;;;;;;;;;;10435181;28;20219;-72
2022/07/29 14:07:23;;;;;;;5.87;3.07;;;;;;;;;;10437444;28;20228;-70
2022/07/29 14:12:27;;;;;;;5.23;2.77;;;;;;;;;;10437934;28;20227;-69
2022/07/29 14:17:28;;;;;;;4.70;3.10;;;;;;;;;;10443193;28;20664;-69
2022/07/29 14:22:33;;;;;;;4.47;3.20;;;;;;;;;;10430981;28;20266;-70
2022/07/29 14:27:34;;;;;;;4.40;2.80;;;;;;;;;;10435509;28;20733;-71
2022/07/29 14:32:35;;;;;;;4.83;2.87;;;;;;;;;;10435011;28;20262;-70
2022/07/29 14:37:36;;;;;;;7.60;3.00;;;;;;;;;;10435363;28;20231;-69
2022/07/29 14:42:37;;;;;;;5.20;3.10;;;;;;;;;;10428481;28;20226;-70
2022/07/29 14:47:39;;;;;;;3.60;2.63;;;;;;;;;;10435900;28;20322;-69
2022/07/29 14:52:40;;;;;;;13.67;2.93;;;;;;;;;;10429048;28;20639;-70
2022/07/29 14:57:41;;;;;;;4.23;2.97;;;;;;;;;;10435233;28;20229;-70
2022/07/29 15:02:42;;;;;;;4.07;2.60;;;;;;;;;;10427792;28;20234;-70
2022/07/29 15:07:44;;;;;;;5.33;2.90;;;;;;;;;;10411199;28;20599;-69
2022/07/29 15:12:45;;;;;;;10.90;3.17;;;;;;;;;;10410077;28;20220;-69
2022/07/29 15:17:50;;;;;;;10.23;3.10;;;;;;;;;;10410380;28;20224;-70
2022/07/29 15:22:51;;;;;;;5.40;3.00;;;;;;;;;;10411702;28;20217;-69
2022/07/29 15:27:52;;;;;;;6.47;3.10;;;;;;;;;;10430706;28;20727;-69
2022/07/29 15:32:53;;;;;;;10.80;2.90;;;;;;;;;;10435310;28;20282;-69
2022/07/29 15:37:54;;;;;;;7.33;2.77;;;;;;;;;;10433458;28;20241;-69
2022/07/29 15:42:55;;;;;;;9.80;2.80;;;;;;;;;;10428307;28;20231;-70
2022/07/29 15:47:56;;;;;;;5.20;3.00;;;;;;;;;;10433822;28;20263;-70
2022/07/29 15:52:57;;;;;;;4.37;2.57;;;;;;;;;;10428061;28;20592;-69
2022/07/29 15:58:01;;;;;;;6.40;2.80;;;;;;;;;;10432635;28;20242;-69
2022/07/29 16:03:02;;;;;;;5.70;2.50;;;;;;;;;;10432287;28;20231;-69
2022/07/29 16:08:03;;;;;;;8.43;2.73;;;;;;;;;;10430772;28;20243;-69
2022/07/29 16:13:07;;;;;;;5.87;2.63;;;;;;;;;;10439379;28;20240;-69
2022/07/29 16:18:08;;;;;;;3.73;2.37;;;;;;;;;;10444931;28;20227;-69
2022/07/29 16:23:11;;;;;;;6.20;2.67;;;;;;;;;;10444463;28;20247;-69
2022/07/29 16:28:12;;;;;;;4.43;2.80;;;;;;;;;;10436230;28;20232;-69
2022/07/29 16:33:13;;;;;;;3.70;3.27;;;;;;;;;;10445111;28;20675;-69
2022/07/29 16:38:13;;;;;;;8.50;3.30;;;;;;;;;;10440961;28;20639;-69
2022/07/29 16:43:14;;;;;;;8.80;3.33;;;;;;;;;;10433220;28;20224;-70
2022/07/29 16:48:16;;;;;;;4.83;3.50;;;;;;;;;;10432478;28;20600;-70
2022/07/29 16:53:17;;;;;;;7.37;4.20;;;;;;;;;;10436491;28;20220;-70
2022/07/29 16:58:18;;;;;;;5.23;3.30;;;;;;;;;;10437220;28;20596;-70
2022/07/29 17:03:19;;;;;;;5.07;3.50;;;;;;;;;;10431082;28;20227;-70
2022/07/29 17:08:20;;;;;;;3.43;3.13;;;;;;;;;;10435133;28;20250;-70
2022/07/29 17:13:21;;;;;;;8.03;3.50;;;;;;;;;;10436676;28;20277;-70
2022/07/29 17:18:24;;;;;;;5.73;3.37;;;;;;;;;;10434328;28;20641;-70
2022/07/29 17:23:25;;;;;;;5.90;3.17;;;;;;;;;;10443543;28;20220;-69
2022/07/29 17:28:26;;;;;;;3.00;2.70;;;;;;;;;;10433721;28;20278;-70
2022/07/29 17:33:27;;;;;;;2.97;2.70;;;;;;;;;;10437464;28;20251;-70
2022/07/29 17:38:28;;;;;;;3.70;2.80;;;;;;;;;;10433263;28;20223;-70
2022/07/29 17:43:32;;;;;;;5.57;2.70;;;;;;;;;;10435793;28;20220;-70
2022/07/29 17:48:34;;;;;;;4.33;2.70;;;;;;;;;;10432201;28;20286;-69
2022/07/29 17:53:35;;;;;;;4.07;2.50;;;;;;;;;;10437310;28;20230;-70
2022/07/29 17:58:37;;;;;;;5.17;3.20;;;;;;;;;;10437828;28;20279;-68
2022/07/29 18:03:39;;;;;;;4.37;3.20;;;;;;;;;;10430465;28;20231;-69
2022/07/29 18:08:40;;;;;;;2.87;2.57;;;;;;;;;;10444795;28;20226;-69
2022/07/29 18:13:44;;;;;;;5.93;2.33;;;;;;;;;;10429586;28;20315;-69
2022/07/29 18:18:45;;;;;;;5.37;2.63;;;;;;;;;;10429098;28;20227;-70
2022/07/29 18:23:49;;;;;;;7.87;2.77;;;;;;;;;;10433383;28;20633;-69
2022/07/29 18:28:50;;;;;;;6.20;2.90;;;;;;;;;;10436395;28;20257;-70
2022/07/29 18:33:51;;;;;;;5.67;2.80;;;;;;;;;;10433302;28;20226;-71
2022/07/29 18:38:52;;;;;;;2.87;2.50;;;;;;;;;;10428502;28;20212;-69
2022/07/29 18:43:53;;;;;;;9.77;3.97;;;;;;;;;;10435106;28;20707;-69
2022/07/29 18:48:58;;;;;;;4.63;3.07;;;;;;;;;;10429988;28;20379;-71
2022/07/29 18:53:59;;;;;;;4.47;3.00;;;;;;;;;;10436394;28;20683;-70
2022/07/29 18:59:00;;;;;;;4.23;2.83;;;;;;;;;;10434114;28;20300;-69
2022/07/29 19:04:01;;;;;;;3.40;3.10;;;;;;;;;;10430048;28;20262;-68
2022/07/29 19:09:02;;;;;;;3.87;3.00;;;;;;;;;;10433309;28;20223;-70
2022/07/29 19:14:04;;;;;;;4.07;3.20;;;;;;;;;;10437810;28;20215;-69
2022/07/29 19:19:06;;;;;;;4.57;3.70;;;;;;;;;;10427304;28;20690;-70
2022/07/29 19:24:07;;;;;;;6.37;3.17;;;;;;;;;;10432568;28;20233;-69
2022/07/29 19:29:08;;;;;;;4.93;3.20;;;;;;;;;;10427205;28;20224;-69
2022/07/29 19:34:09;;;;;;;7.40;3.47;;;;;;;;;;10429251;28;20313;-68
2022/07/29 19:39:10;;;;;;;3.87;3.30;;;;;;;;;;10430741;28;20219;-69
2022/07/29 19:44:11;;;;;;;6.80;3.43;;;;;;;;;;10434922;28;20247;-69
2022/07/29 19:49:12;;;;;;;6.60;4.47;;;;;;;;;;10439840;28;20771;-69
2022/07/29 19:54:16;;;;;;;4.33;3.10;;;;;;;;;;10434583;28;20220;-69
2022/07/29 19:59:24;;;;;;;5.53;3.40;;;;;;;;;;10433781;28;20213;-70
2022/07/29 20:04:25;;;;;;;5.17;3.30;;;;;;;;;;10436978;28;20306;-69
2022/07/29 20:09:29;;;;;;;8.03;3.30;;;;;;;;;;10442257;28;20249;-70
2022/07/29 20:14:30;;;;;;;4.77;3.53;;;;;;;;;;10434090;28;20326;-70
2022/07/29 20:19:32;;;;;;;5.60;3.17;;;;;;;;;;10442340;28;20344;-70
2022/07/29 20:24:32;;;;;;;3.43;3.13;;;;;;;;;;10440130;28;20234;-70
2022/07/29 20:29:34;;;;;;;3.30;3.00;;;;;;;;;;10433649;28;20567;-70
2022/07/29 20:34:35;;;;;;;4.13;3.47;;;;;;;;;;10439832;28;20302;-70
2022/07/29 20:39:36;;;;;;;4.57;3.50;;;;;;;;;;10434629;28;20225;-69
2022/07/29 20:44:37;;;;;;;4.13;3.73;;;;;;;;;;10440196;28;20270;-70
2022/07/29 20:49:38;;;;;;;4.30;3.40;;;;;;;;;;10447960;28;20262;-69
2022/07/29 20:54:39;;;;;;;5.27;3.30;;;;;;;;;;10432561;28;20224;-70
2022/07/29 20:59:42;;;;;;;6.03;3.57;;;;;;;;;;10440094;28;20228;-70
2022/07/29 21:04:43;;;;;;;5.87;3.90;;;;;;;;;;10431884;28;20235;-69
2022/07/29 21:09:44;;;;;;;5.07;3.90;;;;;;;;;;10439951;28;20307;-69
2022/07/29 21:19:46;;;;;;;6.00;4.70;;;;;;;;;;10439789;28;20916;-69
2022/07/29 21:24:47;;;;;;;5.47;4.00;;;;;;;;;;10432341;28;20225;-69
2022/07/29 21:29:49;;;;;;;5.77;4.00;;;;;;;;;;10441852;28;20249;-69
2022/07/29 21:34:50;;;;;;;7.13;3.87;;;;;;;;;;10438652;28;20230;-69
2022/07/29 21:39:51;;;;;;;5.40;4.27;;;;;;;;;;10431076;28;20235;-69
2022/07/29 21:44:52;;;;;;;5.60;3.70;;;;;;;;;;10431048;28;20295;-70
2022/07/29 21:49:55;;;;;;;5.10;3.90;;;;;;;;;;10438230;28;20627;-70
2022/07/29 21:54:56;;;;;;;5.17;4.10;;;;;;;;;;10431722;28;20229;-69
2022/07/29 21:59:57;;;;;;;4.97;4.47;;;;;;;;;;10436809;28;20216;-68
2022/07/29 22:04:58;;;;;;;5.17;4.10;;;;;;;;;;10430468;28;20232;-68
2022/07/29 22:09:59;;;;;;;4.60;4.10;;;;;;;;;;10427508;28;20290;-68
2022/07/29 22:15:03;;;;;;;4.73;4.03;;;;;;;;;;10437617;28;20630;-69
2022/07/29 22:20:05;;;;;;;6.97;3.80;;;;;;;;;;10438796;28;20223;-68
2022/07/29 22:25:06;;;;;;;5.23;3.80;;;;;;;;;;10429504;28;20214;-70
2022/07/29 22:30:10;;;;;;;4.17;3.60;;;;;;;;;;10434422;28;20285;-69
2022/07/29 22:35:11;;;;;;;3.67;3.37;;;;;;;;;;10438759;28;20256;-70
2022/07/29 22:40:13;;;;;;;4.13;3.40;;;;;;;;;;10432285;28;20266;-70
2022/07/29 22:45:13;;;;;;;4.00;3.40;;;;;;;;;;10435355;28;20203;-70
2022/07/29 22:50:15;;;;;;;5.00;3.47;;;;;;;;;;10436517;28;20181;-69
2022/07/29 22:55:16;;;;;;;4.43;3.63;;;;;;;;;;10436908;28;20226;-69
2022/07/29 23:00:17;;;;;;;3.83;3.30;;;;;;;;;;10430937;28;20219;-69
2022/07/29 23:05:18;;;;;;;3.63;3.30;;;;;;;;;;10440603;28;20215;-68
2022/07/29 23:10:21;;;;;;;4.60;3.50;;;;;;;;;;10435516;28;20191;-70
2022/07/29 23:15:21;;;;;;;4.97;3.20;;;;;;;;;;10430403;28;20203;-69
2022/07/29 23:20:22;;;;;;;5.53;3.67;;;;;;;;;;10432968;28;20196;-70
2022/07/29 23:25:26;;;;;;;5.27;3.40;;;;;;;;;;10428479;28;20691;-70
2022/07/29 23:30:28;;;;;;;4.07;3.63;;;;;;;;;;10432726;28;20592;-69
2022/07/29 23:35:29;;;;;;;4.50;4.10;;;;;;;;;;10435204;28;20227;-70
2022/07/29 23:40:30;;;;;;;4.47;3.97;;;;;;;;;;10435961;28;20222;-70
2022/07/29 23:45:30;;;;;;;4.43;4.03;;;;;;;;;;10425475;28;20227;-69
2022/07/29 23:50:31;;;;;;;4.97;4.13;;;;;;;;;;10428665;28;20778;-70
2022/07/29 23:55:32;;;;;;;4.97;4.37;;;;;;;;;;10433744;28;20220;-69
